Time;durP1;ratioP1;P1;durP2;ratioP2;P2;SDS_P1;SDS_P2;PMS_P1;PMS_P2;Temp;Humidity;BMP_temperature;BMP_pressure;BME280_temperature;BME280_humidity;BME280_pressure;Samples;Min_cycle;Max_cycle;Signal;HPM_P1;HPM_P2
2023/01/16 00:01:27;;;;;;;2.13;0.90;;;6.90;99.90;;;;;;4992788;28;20187;-80
2023/01/16 00:03:53;;;;;;;3.37;1.20;;;6.90;99.90;;;;;;4993581;28;20187;-80
2023/01/16 00:06:19;;;;;;;2.00;0.90;;;6.90;99.90;;;;;;5000592;28;20435;-80
2023/01/16 00:08:44;;;;;;;5.90;1.30;;;6.90;99.90;;;;;;4975412;28;20649;-79
2023/01/16 00:11:11;;;;;;;2.43;1.10;;;7.00;99.90;;;;;;4992792;28;20443;-80
2023/01/16 00:13:37;;;;;;;3.40;1.00;;;6.80;99.90;;;;;;4959360;28;20525;-80
2023/01/16 00:16:03;;;;;;;2.60;1.10;;;7.00;99.90;;;;;;4959485;28;20422;-80
2023/01/16 00:18:29;;;;;;;4.07;1.00;;;7.00;99.90;;;;;;4992693;28;20747;-80
2023/01/16 00:20:55;;;;;;;3.30;1.10;;;6.80;99.90;;;;;;4972015;28;20419;-80
2023/01/16 00:23:21;;;;;;;1.63;0.80;;;6.90;99.90;;;;;;4975425;28;20184;-80
2023/01/16 00:25:46;;;;;;;4.43;1.20;;;6.70;99.90;;;;;;4975204;28;20191;-80
2023/01/16 00:28:13;;;;;;;2.23;0.87;;;6.90;99.90;;;;;;4959043;28;20199;-80
2023/01/16 00:30:39;;;;;;;1.50;0.97;;;7.00;99.90;;;;;;4975234;28;20192;-80
2023/01/16 00:33:05;;;;;;;3.40;1.27;;;6.90;99.90;;;;;;4992710;28;20411;-80
2023/01/16 00:35:32;;;;;;;4.93;1.07;;;6.80;99.90;;;;;;4975360;28;20466;-80
2023/01/16 00:37:57;;;;;;;2.57;1.00;;;6.80;99.90;;;;;;4992285;28;20183;-79
2023/01/16 00:40:23;;;;;;;3.23;1.23;;;6.90;99.90;;;;;;4958965;28;20509;-80
2023/01/16 00:42:49;;;;;;;4.67;1.63;;;7.00;99.90;;;;;;4991216;28;20202;-80
2023/01/16 00:45:14;;;;;;;1.93;1.10;;;6.80;99.90;;;;;;4991195;28;20427;-81
2023/01/16 00:47:41;;;;;;;2.90;1.00;;;6.90;99.90;;;;;;4975031;28;20191;-81
2023/01/16 00:50:13;;;;;;;2.77;1.53;;;6.90;99.90;;;;;;4959297;28;20191;-81
2023/01/16 00:52:38;;;;;;;2.17;1.07;;;7.00;99.90;;;;;;4992674;28;20825;-80
2023/01/16 00:55:04;;;;;;;1.87;1.20;;;7.00;99.90;;;;;;4992470;28;20467;-80
2023/01/16 00:57:30;;;;;;;2.10;0.67;;;6.90;99.90;;;;;;4974681;28;20183;-80
2023/01/16 00:59:56;;;;;;;2.13;1.03;;;7.00;99.90;;;;;;4974816;28;20446;-80
2023/01/16 01:02:21;;;;;;;4.60;0.83;;;7.10;99.90;;;;;;4992279;28;20183;-80
2023/01/16 01:04:47;;;;;;;3.73;1.03;;;6.90;99.90;;;;;;4974965;28;20203;-80
2023/01/16 01:07:12;;;;;;;3.73;1.60;;;7.00;99.90;;;;;;4974838;28;20254;-79
2023/01/16 01:09:38;;;;;;;1.97;0.90;;;7.10;99.90;;;;;;4974812;28;20194;-80
2023/01/16 01:12:04;;;;;;;1.30;0.80;;;6.90;99.90;;;;;;4991224;28;20191;-80
2023/01/16 01:14:29;;;;;;;3.70;1.10;;;6.80;99.90;;;;;;4974633;28;20211;-81
2023/01/16 01:16:55;;;;;;;1.47;1.03;;;6.70;99.90;;;;;;4992070;28;20226;-80
2023/01/16 01:19:21;;;;;;;1.43;0.80;;;6.80;99.90;;;;;;4992035;28;20195;-80
2023/01/16 01:21:46;;;;;;;3.60;0.83;;;6.70;99.90;;;;;;4991583;28;20307;-80
2023/01/16 01:24:12;;;;;;;2.23;0.70;;;6.70;99.90;;;;;;4992601;28;20886;-80
2023/01/16 01:26:38;;;;;;;2.10;0.63;;;6.70;99.90;;;;;;4991433;28;20705;-80
2023/01/16 01:29:04;;;;;;;5.37;0.80;;;6.80;99.90;;;;;;4974580;28;20194;-81
2023/01/16 01:31:29;;;;;;;1.53;0.70;;;6.90;99.90;;;;;;4991913;28;20203;-79
2023/01/16 01:33:55;;;;;;;2.07;0.83;;;6.60;99.90;;;;;;4974570;28;20419;-81
2023/01/16 01:36:21;;;;;;;3.23;1.10;;;6.70;99.90;;;;;;4958502;28;20949;-80
2023/01/16 01:38:49;;;;;;;1.80;1.00;;;7.00;99.90;;;;;;4977691;28;20278;-80
2023/01/16 01:41:15;;;;;;;3.13;0.60;;;6.70;99.90;;;;;;4978328;28;20180;-80
2023/01/16 01:43:40;;;;;;;4.67;1.00;;;7.00;99.90;;;;;;4995726;28;20985;-80
2023/01/16 01:46:07;;;;;;;2.00;1.23;;;6.80;99.90;;;;;;4962301;28;20426;-81
2023/01/16 01:48:40;;;;;;;1.23;0.80;;;6.90;99.90;;;;;;4994034;28;20190;-79
2023/01/16 01:51:21;;;;;;;2.07;1.10;;;6.60;99.90;;;;;;4978056;28;20430;-81
2023/01/16 01:54:02;;;;;;;1.33;0.77;;;6.80;99.90;;;;;;4982544;28;20424;-81
2023/01/16 01:56:36;;;;;;;4.00;1.00;;;6.80;99.90;;;;;;4978112;28;20771;-81
2023/01/16 01:59:07;;;;;;;2.07;1.00;;;6.80;99.90;;;;;;4994467;28;20915;-81
2023/01/16 02:01:33;;;;;;;1.93;0.70;;;6.60;99.90;;;;;;4976616;28;20986;-81
2023/01/16 02:04:04;;;;;;;1.40;0.80;;;6.60;99.90;;;;;;4976809;28;20411;-80
2023/01/16 02:06:44;;;;;;;4.00;1.20;;;6.90;99.90;;;;;;4994266;28;20427;-81
2023/01/16 02:09:10;;;;;;;1.40;1.10;;;6.70;99.90;;;;;;4986354;28;20904;-80
2023/01/16 02:11:56;;;;;;;3.50;1.20;;;6.60;99.90;;;;;;4976877;28;20418;-81
2023/01/16 02:14:24;;;;;;;1.83;1.03;;;6.50;99.90;;;;;;4993993;28;20606;-82
2023/01/16 02:20:11;;;;;;;1.90;0.87;;;6.60;99.90;;;;;;4993780;28;20842;-81
2023/01/16 02:22:58;;;;;;;2.20;1.10;;;6.60;99.90;;;;;;4960345;28;20828;-79
2023/01/16 02:25:56;;;;;;;1.83;0.80;;;6.60;99.90;;;;;;4976605;28;20510;-80
2023/01/16 02:28:53;;;;;;;1.47;0.80;;;6.70;99.90;;;;;;4949782;28;20427;-78
2023/01/16 02:32:17;;;;;;;1.80;0.93;;;6.50;99.90;;;;;;4938036;28;20462;-80
2023/01/16 02:34:46;;;;;;;3.90;1.10;;;6.70;99.90;;;;;;4924370;29;20970;-80
2023/01/16 02:37:25;;;;;;;1.43;0.87;;;6.50;99.90;;;;;;4964665;28;20435;-80
2023/01/16 02:40:07;;;;;;;1.33;1.10;;;6.60;99.90;;;;;;4972918;28;20469;-80
2023/01/16 02:42:44;;;;;;;1.83;0.70;;;6.50;99.90;;;;;;4976173;28;20485;-80
2023/01/16 02:45:32;;;;;;;2.33;0.80;;;6.70;99.90;;;;;;4993528;28;20446;-80
2023/01/16 02:48:02;;;;;;;1.90;0.93;;;6.70;99.90;;;;;;4959619;28;20419;-79
2023/01/16 02:50:59;;;;;;;2.17;0.70;;;6.70;99.90;;;;;;4959864;28;20426;-79
2023/01/16 02:53:57;;;;;;;1.40;1.10;;;6.60;99.90;;;;;;4976546;28;20419;-79
2023/01/16 16:13:14;;;;;;;1.30;1.20;;;5.60;99.90;;;;;;5049303;28;20625;-86
2023/01/16 16:18:57;;;;;;;1.50;1.40;;;5.70;99.90;;;;;;5061441;28;20446;-86
2023/01/16 16:21:27;;;;;;;1.30;1.20;;;5.70;99.90;;;;;;5028213;28;20457;-86
2023/01/16 16:24:13;;;;;;;1.90;1.47;;;5.60;99.90;;;;;;5012338;23;20597;-77
2023/01/16 16:26:42;;;;;;;1.67;1.57;;;5.70;99.90;;;;;;4999005;28;20495;-77
2023/01/16 16:29:18;;;;;;;1.40;1.30;;;5.80;99.90;;;;;;4990668;28;20455;-77
2023/01/16 16:31:46;;;;;;;1.80;1.70;;;5.90;99.90;;;;;;5015321;28;20465;-77
2023/01/16 16:34:23;;;;;;;3.63;2.20;;;5.70;99.90;;;;;;4979997;28;20469;-77
2023/01/16 16:36:53;;;;;;;2.50;1.60;;;5.70;99.90;;;;;;5003011;28;20596;-77
2023/01/16 16:39:24;;;;;;;2.90;1.63;;;5.90;99.90;;;;;;5009950;28;20450;-77
2023/01/16 16:44:43;;;;;;;2.17;2.00;;;5.60;99.90;;;;;;5012729;28;20549;-77
2023/01/16 16:47:29;;;;;;;3.90;1.87;;;6.00;99.90;;;;;;5007604;28;20536;-77
2023/01/16 16:49:55;;;;;;;1.83;1.70;;;5.80;99.90;;;;;;5012711;28;21135;-77
2023/01/16 16:52:43;;;;;;;1.40;1.30;;;5.70;99.90;;;;;;4993600;28;20468;-77
2023/01/16 16:55:27;;;;;;;1.70;1.60;;;5.70;99.90;;;;;;5017812;28;20477;-76
2023/01/16 16:57:53;;;;;;;2.60;1.80;;;5.80;99.90;;;;;;4991105;28;21168;-76
2023/01/16 17:00:19;;;;;;;2.13;1.93;;;5.90;99.90;;;;;;5012885;28;20439;-77
2023/01/16 17:02:52;;;;;;;2.20;2.03;;;6.00;99.90;;;;;;5014241;28;20445;-75
2023/01/16 17:05:18;;;;;;;2.67;1.70;;;5.70;99.90;;;;;;5007510;28;22411;-77
2023/01/16 17:07:49;;;;;;;1.93;1.70;;;6.00;99.90;;;;;;5011057;28;20528;-76
2023/01/16 17:10:17;;;;;;;3.13;1.73;;;6.00;99.90;;;;;;4974873;28;20457;-77
2023/01/16 17:12:43;;;;;;;1.67;1.57;;;5.80;99.90;;;;;;5022799;28;20481;-77
2023/01/16 17:15:12;;;;;;;1.63;1.50;;;5.90;99.90;;;;;;4969697;28;20553;-77
2023/01/16 17:17:44;;;;;;;1.90;1.80;;;5.80;99.90;;;;;;5009792;28;20714;-76
2023/01/16 17:20:18;;;;;;;1.80;1.70;;;5.90;99.90;;;;;;5008942;28;20960;-76
2023/01/16 17:22:44;;;;;;;2.33;2.13;;;6.00;99.90;;;;;;5017704;28;20456;-77
2023/01/16 17:25:21;;;;;;;1.97;1.80;;;5.70;99.90;;;;;;5018567;28;20465;-77
2023/01/16 17:27:48;;;;;;;5.17;4.67;;;6.00;99.90;;;;;;5004358;28;20446;-77
2023/01/16 17:30:14;;;;;;;2.23;1.90;;;5.80;99.90;;;;;;5010510;28;20965;-77
2023/01/16 17:32:41;;;;;;;2.70;2.40;;;5.70;99.90;;;;;;4991977;28;20964;-77
2023/01/16 17:35:15;;;;;;;3.90;3.00;;;6.00;99.90;;;;;;5007771;28;20473;-76
2023/01/16 17:37:41;;;;;;;8.20;6.10;;;5.90;99.90;;;;;;4992432;28;20478;-77
2023/01/16 17:40:07;;;;;;;10.83;7.80;;;5.90;99.90;;;;;;5009280;28;20488;-76
2023/01/16 17:45:51;;;;;;;2.50;2.30;;;6.00;99.90;;;;;;5010151;28;20528;-77
2023/01/16 17:48:27;;;;;;;1.87;1.77;;;6.00;99.90;;;;;;5015436;28;20445;-76
2023/01/16 17:50:54;;;;;;;1.97;1.80;;;6.20;99.90;;;;;;5002170;28;20469;-76
2023/01/16 17:53:21;;;;;;;2.17;2.00;;;6.00;99.90;;;;;;5011090;28;20454;-77
2023/01/16 17:55:50;;;;;;;2.33;2.13;;;5.90;99.90;;;;;;5007542;28;20496;-77
2023/01/16 17:58:24;;;;;;;1.80;1.70;;;5.80;99.90;;;;;;5018849;28;20446;-78
2023/01/16 18:01:01;;;;;;;2.17;1.97;;;6.10;99.90;;;;;;4994965;28;20841;-77
2023/01/16 18:03:32;;;;;;;4.30;2.00;;;5.80;99.90;;;;;;4986954;28;20449;-77
2023/01/16 18:06:02;;;;;;;1.70;1.60;;;6.10;99.90;;;;;;4991847;28;20477;-77
2023/01/16 18:08:28;;;;;;;2.30;2.10;;;6.00;99.90;;;;;;4984600;28;20460;-77
2023/01/16 18:10:54;;;;;;;2.13;1.80;;;6.10;99.90;;;;;;4989840;28;20520;-77
2023/01/16 18:18:50;;;;;;;1.57;1.47;;;5.90;99.90;;;;;;5008648;28;20446;-77
2023/01/16 18:24:00;;;;;;;1.30;1.20;;;6.10;99.90;;;;;;5010833;28;20222;-76
2023/01/16 18:26:26;;;;;;;1.70;1.60;;;6.00;99.90;;;;;;4993811;28;20458;-77
2023/01/16 18:28:52;;;;;;;2.10;1.90;;;6.10;99.90;;;;;;4982900;28;20451;-77
2023/01/16 18:31:19;;;;;;;1.70;1.60;;;6.00;99.90;;;;;;5011176;28;20797;-77
2023/01/16 18:33:46;;;;;;;1.73;1.63;;;6.00;99.90;;;;;;4992263;28;20214;-76
2023/01/16 18:36:14;;;;;;;1.77;1.67;;;6.20;99.90;;;;;;4985592;28;20490;-75
2023/01/16 19:03:29;;;;;;;3.37;2.97;;;6.10;99.90;;;;;;5004239;28;20441;-77
2023/01/16 19:05:56;;;;;;;2.93;2.63;;;6.10;99.90;;;;;;5007865;28;20544;-77
2023/01/16 19:08:23;;;;;;;2.80;2.60;;;6.10;99.90;;;;;;5010862;28;20202;-77
2023/01/16 19:10:51;;;;;;;3.20;3.00;;;6.00;99.90;;;;;;4989642;28;20461;-77
2023/01/16 19:13:17;;;;;;;4.43;3.50;;;6.10;99.90;;;;;;4992696;28;20465;-76
2023/01/16 19:18:27;;;;;;;3.53;3.23;;;6.20;99.90;;;;;;5003460;28;20933;-77
2023/01/16 19:20:54;;;;;;;6.73;6.13;;;6.00;99.90;;;;;;5017096;28;20476;-77
2023/01/16 19:23:19;;;;;;;5.40;4.90;;;6.00;99.90;;;;;;4983869;28;20480;-77
2023/01/16 19:25:45;;;;;;;5.60;4.97;;;6.10;99.90;;;;;;5006012;28;20474;-77
2023/01/16 19:28:11;;;;;;;5.30;4.80;;;6.00;99.90;;;;;;4991755;28;20529;-76
2023/01/16 19:30:36;;;;;;;4.80;4.40;;;6.20;99.90;;;;;;5014231;28;20238;-77
2023/01/16 19:33:02;;;;;;;5.13;4.57;;;6.10;99.90;;;;;;4995329;28;20203;-76
2023/01/16 19:35:28;;;;;;;5.17;4.60;;;6.10;99.90;;;;;;5009793;28;20227;-77
2023/01/16 19:37:53;;;;;;;5.17;4.67;;;6.10;99.90;;;;;;5004137;28;20258;-77
2023/01/16 19:40:19;;;;;;;5.90;5.37;;;6.10;99.90;;;;;;5004588;28;20215;-77
2023/01/16 19:48:19;;;;;;;8.83;7.10;;;6.10;99.90;;;;;;5000467;28;20450;-77
2023/01/16 19:50:45;;;;;;;8.80;6.87;;;6.20;99.90;;;;;;5002539;28;20478;-77
2023/01/16 19:53:10;;;;;;;8.50;5.50;;;6.10;99.90;;;;;;5003580;28;20454;-76
2023/01/16 19:55:37;;;;;;;8.50;5.80;;;6.00;99.90;;;;;;4984425;28;20240;-77
2023/01/16 19:58:02;;;;;;;6.83;5.90;;;6.10;99.90;;;;;;5008176;28;20198;-77
2023/01/16 20:00:28;;;;;;;6.00;5.50;;;6.20;99.90;;;;;;4993487;28;20537;-77
2023/01/16 20:02:53;;;;;;;6.43;5.30;;;6.30;99.90;;;;;;4999915;28;20210;-77
2023/01/16 20:05:19;;;;;;;6.80;5.67;;;6.20;99.90;;;;;;5011496;28;20207;-76
2023/01/16 20:07:45;;;;;;;6.67;5.97;;;6.00;99.90;;;;;;5005141;28;20246;-77
2023/01/16 20:10:12;;;;;;;7.13;6.43;;;6.10;99.90;;;;;;4998024;28;20294;-77
2023/01/16 20:12:38;;;;;;;6.17;5.57;;;6.30;99.90;;;;;;5008172;28;20442;-77
2023/01/16 20:15:05;;;;;;;7.17;6.43;;;6.20;99.90;;;;;;5009227;28;20465;-77
2023/01/16 20:17:36;;;;;;;7.43;6.63;;;6.20;99.90;;;;;;5013223;28;20211;-77
2023/01/16 20:20:04;;;;;;;7.47;6.77;;;6.10;99.90;;;;;;4988309;28;20480;-77
2023/01/16 20:22:30;;;;;;;10.80;6.83;;;6.10;99.90;;;;;;5003113;28;21114;-77
2023/01/16 20:24:56;;;;;;;8.20;7.40;;;6.10;99.90;;;;;;5000594;28;20548;-77
2023/01/16 20:27:22;;;;;;;7.33;6.63;;;6.20;99.90;;;;;;4984010;28;20541;-77
2023/01/16 20:29:48;;;;;;;8.27;7.27;;;5.90;99.90;;;;;;4996224;28;20230;-77
2023/01/16 20:32:15;;;;;;;11.70;7.30;;;6.00;99.90;;;;;;4987116;28;20273;-77
2023/01/16 20:34:44;;;;;;;8.80;7.50;;;6.10;99.90;;;;;;5006724;28;20460;-77
2023/01/16 20:37:10;;;;;;;7.27;6.57;;;6.30;99.90;;;;;;4996647;28;20473;-77
2023/01/16 20:39:36;;;;;;;8.30;7.50;;;6.10;99.90;;;;;;4985769;28;20934;-76
2023/01/16 20:47:31;;;;;;;7.67;6.97;;;6.20;99.90;;;;;;5002326;28;20942;-77
2023/01/16 20:49:57;;;;;;;8.57;7.77;;;6.20;99.90;;;;;;4970410;28;20450;-77
2023/01/16 20:52:24;;;;;;;8.00;7.30;;;6.20;99.90;;;;;;4997299;28;20210;-77
2023/01/16 20:54:50;;;;;;;7.20;6.50;;;6.20;99.90;;;;;;5006807;28;20461;-77
2023/01/16 20:57:17;;;;;;;7.80;7.10;;;6.10;99.90;;;;;;5000821;28;20458;-77
2023/01/16 20:59:42;;;;;;;6.43;5.83;;;6.00;99.90;;;;;;5004430;28;20462;-77
2023/01/16 21:02:13;;;;;;;6.40;5.80;;;6.00;99.90;;;;;;5000433;28;20456;-77
2023/01/16 21:04:39;;;;;;;5.53;5.03;;;6.00;99.90;;;;;;5001890;28;20202;-77
2023/01/16 21:07:05;;;;;;;6.10;5.13;;;6.10;99.90;;;;;;5003294;28;20584;-77
2023/01/16 21:09:31;;;;;;;6.37;5.77;;;5.90;99.90;;;;;;5008516;28;20781;-77
2023/01/16 21:14:41;;;;;;;7.17;6.47;;;5.70;99.90;;;;;;5002128;28;20279;-77
2023/01/16 21:22:41;;;;;;;9.67;8.50;;;5.80;99.90;;;;;;4993383;28;20497;-76
2023/01/16 21:25:07;;;;;;;8.43;7.50;;;5.70;99.90;;;;;;4988469;28;20457;-77
2023/01/16 21:27:34;;;;;;;8.40;7.60;;;5.90;99.90;;;;;;4995255;28;20453;-77
2023/01/16 21:30:03;;;;;;;8.47;7.67;;;5.60;99.90;;;;;;4990651;28;20469;-77
2023/01/16 21:32:29;;;;;;;8.03;7.33;;;5.70;99.90;;;;;;5012355;28;20457;-77
2023/01/16 21:34:54;;;;;;;8.30;7.60;;;5.90;99.90;;;;;;4994378;28;20527;-77
2023/01/16 21:37:22;;;;;;;7.20;6.50;;;5.60;99.90;;;;;;5008169;28;20217;-77
2023/01/16 21:39:49;;;;;;;7.60;6.90;;;5.70;99.90;;;;;;4987485;28;20268;-77
2023/01/16 21:47:43;;;;;;;7.00;6.40;;;5.50;99.90;;;;;;5007443;28;20450;-77
2023/01/16 21:50:10;;;;;;;6.83;6.23;;;5.40;99.90;;;;;;4995906;28;20489;-77
2023/01/16 21:52:36;;;;;;;5.97;5.43;;;5.50;99.90;;;;;;5005284;28;20229;-77
2023/01/16 21:55:04;;;;;;;6.13;5.63;;;5.50;99.90;;;;;;4996931;28;20521;-77
2023/01/16 21:57:29;;;;;;;6.30;5.80;;;5.50;99.90;;;;;;4982790;28;20454;-77
2023/01/16 21:59:55;;;;;;;6.60;6.10;;;5.60;99.90;;;;;;5011977;28;20464;-77
2023/01/16 22:02:22;;;;;;;7.20;6.50;;;5.70;99.90;;;;;;5011633;28;20269;-77
2023/01/16 22:04:48;;;;;;;8.07;7.30;;;5.40;99.90;;;;;;5011514;28;20207;-77
2023/01/16 22:07:13;;;;;;;7.60;6.90;;;5.60;99.90;;;;;;4986636;28;20945;-77
2023/01/16 22:09:39;;;;;;;8.20;7.40;;;5.30;99.90;;;;;;4972243;28;20438;-77
2023/01/16 22:23:28;;;;;;;5.67;5.17;;;5.60;99.90;;;;;;4968244;28;20518;-77
2023/01/16 22:25:54;;;;;;;7.47;5.10;;;5.50;99.90;;;;;;4979027;28;20537;-77
2023/01/16 22:28:21;;;;;;;5.50;5.07;;;5.40;99.90;;;;;;5001613;28;20330;-77
2023/01/16 22:30:51;;;;;;;7.53;4.80;;;5.60;99.90;;;;;;4996411;28;20649;-77
2023/01/16 22:33:19;;;;;;;5.53;4.60;;;5.40;99.90;;;;;;5002849;28;20907;-77
2023/01/16 22:35:54;;;;;;;6.17;5.57;;;5.60;99.90;;;;;;5012094;28;20469;-77
2023/01/16 22:38:20;;;;;;;5.00;4.50;;;5.40;99.90;;;;;;4984414;28;20512;-77
2023/01/16 22:40:45;;;;;;;5.03;4.63;;;5.40;99.90;;;;;;4988197;28;20589;-77
2023/01/16 22:48:43;;;;;;;4.50;4.10;;;5.40;99.90;;;;;;5020956;28;20425;-77
2023/01/16 22:51:10;;;;;;;4.10;3.80;;;5.60;99.90;;;;;;5018430;28;20991;-77
2023/01/16 22:53:37;;;;;;;4.60;4.20;;;5.40;99.90;;;;;;4997754;28;20634;-77
2023/01/16 22:56:02;;;;;;;4.27;3.90;;;5.60;99.90;;;;;;5014205;28;20477;-77
2023/01/16 22:58:28;;;;;;;3.93;3.63;;;5.30;99.90;;;;;;5006771;28;20429;-77
2023/01/16 23:00:54;;;;;;;3.70;3.40;;;5.50;99.90;;;;;;5021899;28;20318;-77
2023/01/16 23:03:20;;;;;;;4.30;3.97;;;5.70;99.90;;;;;;5019474;28;20425;-77
2023/01/16 23:05:47;;;;;;;3.30;3.03;;;5.40;99.90;;;;;;5013038;28;20203;-76
2023/01/16 23:08:13;;;;;;;4.20;3.87;;;5.70;99.90;;;;;;5028485;28;20439;-77
2023/01/16 23:10:40;;;;;;;4.27;3.87;;;5.40;99.90;;;;;;5013641;28;20426;-77
2023/01/16 23:13:06;;;;;;;3.73;3.43;;;5.50;99.90;;;;;;5017154;28;20241;-76
2023/01/16 23:15:32;;;;;;;4.63;4.30;;;5.30;99.90;;;;;;5011046;28;20457;-77
2023/01/16 23:17:58;;;;;;;4.70;4.30;;;5.30;99.90;;;;;;5011173;28;20509;-77
2023/01/16 23:20:24;;;;;;;5.10;4.70;;;5.60;99.90;;;;;;5014752;28;20209;-77
2023/01/16 23:22:49;;;;;;;4.87;4.40;;;5.50;99.90;;;;;;5015813;28;20225;-76
2023/01/16 23:25:15;;;;;;;5.50;5.10;;;5.40;99.90;;;;;;5000983;28;20457;-77
2023/01/16 23:27:40;;;;;;;5.70;5.20;;;5.40;99.90;;;;;;4998998;28;20193;-77
2023/01/16 23:30:07;;;;;;;5.57;5.10;;;5.60;99.90;;;;;;4989867;28;20552;-77
2023/01/16 23:32:32;;;;;;;6.20;5.70;;;5.40;99.90;;;;;;5017563;28;20187;-77
2023/01/16 23:34:58;;;;;;;7.07;6.37;;;5.50;99.90;;;;;;5006500;28;20847;-77
2023/01/16 23:37:24;;;;;;;5.33;4.83;;;5.40;99.90;;;;;;4984874;28;20592;-77
2023/01/16 23:39:49;;;;;;;7.10;5.80;;;5.40;99.90;;;;;;5019681;28;20187;-77
2023/01/16 23:44:59;;;;;;;5.50;5.00;;;5.30;99.90;;;;;;5007846;28;20209;-77
2023/01/16 23:47:25;;;;;;;6.30;5.70;;;5.30;99.90;;;;;;5016054;28;20894;-77
2023/01/16 23:49:52;;;;;;;5.30;4.80;;;5.50;99.90;;;;;;5010568;28;20183;-76
2023/01/16 23:52:22;;;;;;;5.77;5.23;;;5.30;99.90;;;;;;5015574;28;20528;-77
2023/01/16 23:54:47;;;;;;;5.50;5.00;;;5.30;99.90;;;;;;5010599;28;20521;-76
2023/01/16 23:57:14;;;;;;;5.33;4.93;;;5.40;99.90;;;;;;5011390;28;20835;-77
2023/01/16 23:59:40;;;;;;;6.67;6.03;;;5.50;99.90;;;;;;4981027;28;20270;-77
